createdAt,value
2023-02-11T00:02:47.893Z,19.23
2023-02-11T00:07:50.179Z,18.05
2023-02-11T00:12:52.204Z,13.07
2023-02-11T00:17:54.305Z,16.38
2023-02-11T00:22:56.419Z,18.83
2023-02-11T00:27:59.113Z,12.07
2023-02-11T00:33:01.202Z,18.20
2023-02-11T00:38:03.214Z,14.55
2023-02-11T00:43:06.693Z,14.48
2023-02-11T00:48:08.714Z,14.20
2023-02-11T00:53:11.101Z,11.52
2023-02-11T00:58:13.939Z,13.32
2023-02-11T01:03:17.635Z,12.73
2023-02-11T01:08:19.977Z,14.15
2023-02-11T01:13:22.801Z,10.63
2023-02-11T01:18:25.684Z,13.27
2023-02-11T01:23:27.721Z,12.85
2023-02-11T01:28:31.200Z,13.77
2023-02-11T01:33:35.310Z,13.50
2023-02-11T01:38:38.118Z,10.35
2023-02-11T01:43:47.480Z,10.85
2023-02-11T01:49:20.444Z,13.98
2023-02-11T01:54:48.298Z,9.95
2023-02-11T02:00:06.179Z,12.15
2023-02-11T02:05:42.438Z,9.70
2023-02-11T02:10:47.236Z,12.07
2023-02-11T02:15:59.614Z,11.02
2023-02-11T02:21:20.462Z,12.13
2023-02-11T02:27:00.698Z,11.85
2023-02-11T02:32:36.605Z,10.45
2023-02-11T02:38:04.353Z,6.57
2023-02-11T02:43:09.569Z,6.35
2023-02-11T02:48:29.968Z,7.45
2023-02-11T02:53:55.151Z,8.57
2023-02-11T02:59:17.361Z,10.10
2023-02-11T03:04:29.850Z,9.20
2023-02-11T03:09:55.991Z,7.90
2023-02-11T03:14:59.898Z,7.47
2023-02-11T03:20:04.440Z,7.18
2023-02-11T03:25:07.288Z,11.02
2023-02-11T03:30:41.795Z,5.78
2023-02-11T03:35:54.241Z,7.40
2023-02-11T03:40:58.022Z,6.50
2023-02-11T03:46:01.779Z,5.88
2023-02-11T03:51:07.352Z,6.10
2023-02-11T03:56:14.850Z,7.03
2023-02-11T04:01:17.281Z,7.78
2023-02-11T04:06:19.304Z,7.80
2023-02-11T04:11:21.317Z,4.65
2023-02-11T04:16:23.538Z,5.53
2023-02-11T04:21:25.640Z,6.15
2023-02-11T04:26:27.676Z,4.90
2023-02-11T04:31:29.769Z,5.55
2023-02-11T04:36:31.887Z,4.63
2023-02-11T04:41:34.242Z,7.68
2023-02-11T04:46:36.242Z,6.75
2023-02-11T04:51:38.462Z,4.70
2023-02-11T04:56:40.488Z,4.63
2023-02-11T05:01:43.091Z,4.97
2023-02-11T05:06:45.151Z,6.18
2023-02-11T05:11:47.237Z,2.00
2023-02-11T05:16:49.338Z,9.38
2023-02-11T05:22:02.119Z,7.32
2023-02-11T05:27:04.904Z,7.70
2023-02-11T05:32:09.061Z,5.40
2023-02-11T05:37:11.115Z,6.15
2023-02-11T05:42:14.136Z,5.57
2023-02-11T05:47:16.107Z,5.13
2023-02-11T05:52:18.088Z,6.05
2023-02-11T05:57:20.212Z,6.40
2023-02-11T06:02:23.218Z,7.07
2023-02-11T06:07:25.289Z,6.18
2023-02-11T06:12:27.377Z,6.30
2023-02-11T06:17:33.718Z,6.07
2023-02-11T06:22:35.799Z,5.43
2023-02-11T06:27:38.376Z,5.43
2023-02-11T06:32:44.509Z,6.68
2023-02-11T06:37:48.102Z,6.15
2023-02-11T06:42:50.179Z,6.13
2023-02-11T06:47:54.014Z,8.65
2023-02-11T06:52:56.006Z,5.75
2023-02-11T06:57:58.053Z,7.88
2023-02-11T07:03:01.109Z,5.38
2023-02-11T07:08:03.201Z,6.75
2023-02-11T07:13:05.393Z,5.00
2023-02-11T07:18:07.483Z,9.73
2023-02-11T07:23:09.670Z,7.07
2023-02-11T07:28:11.984Z,5.55
2023-02-11T07:33:14.009Z,13.30
2023-02-11T07:38:16.038Z,5.85
2023-02-11T07:48:19.865Z,5.95
2023-02-11T07:53:21.931Z,10.18
2023-02-11T07:58:23.939Z,7.05
2023-02-11T08:08:28.131Z,8.52
2023-02-11T08:13:30.227Z,5.65
2023-02-11T08:18:33.456Z,9.77
2023-02-11T08:23:40.269Z,10.38
2023-02-11T08:28:44.013Z,8.75
2023-02-11T08:33:46.336Z,11.40
2023-02-11T08:38:48.401Z,8.52
2023-02-11T08:43:50.426Z,12.48
2023-02-11T08:48:52.953Z,11.52
2023-02-11T08:53:55.499Z,10.05
2023-02-11T08:58:57.713Z,13.32
2023-02-11T09:03:59.853Z,14.45
2023-02-11T09:09:01.891Z,10.90
2023-02-11T09:14:04.732Z,7.55
2023-02-11T09:19:06.804Z,9.65
2023-02-11T09:24:08.961Z,10.35
2023-02-11T09:29:11.201Z,7.93
2023-02-11T09:34:13.522Z,16.85
2023-02-11T09:39:20.604Z,12.48
2023-02-11T09:44:26.445Z,11.18
2023-02-11T09:49:44.106Z,9.13
2023-02-11T09:54:55.751Z,10.27
2023-02-11T09:59:58.107Z,13.55
2023-02-11T10:05:35.494Z,10.02
2023-02-11T10:11:04.350Z,9.07
2023-02-11T10:16:17.171Z,12.18
2023-02-11T10:21:41.666Z,8.95
2023-02-11T10:26:45.684Z,13.45
2023-02-11T10:31:49.995Z,10.82
2023-02-11T10:36:52.069Z,13.90
2023-02-11T10:42:03.228Z,11.90
2023-02-11T10:47:22.868Z,9.70
2023-02-11T10:52:27.257Z,8.95
2023-02-11T10:57:31.889Z,12.25
2023-02-11T11:02:38.887Z,13.70
2023-02-11T11:07:59.461Z,12.90
2023-02-11T11:13:01.747Z,11.57
2023-02-11T11:18:23.020Z,11.45
2023-02-11T11:23:26.132Z,12.20
2023-02-11T11:28:31.649Z,14.85
2023-02-11T11:33:35.890Z,8.98
2023-02-11T11:38:45.918Z,11.90
2023-02-11T11:44:15.533Z,13.77
2023-02-11T11:49:43.634Z,11.63
2023-02-11T11:54:56.405Z,11.80
2023-02-11T11:59:58.733Z,10.60
2023-02-11T12:05:29.928Z,11.98
2023-02-11T12:10:37.723Z,15.07
2023-02-11T12:16:14.463Z,8.13
2023-02-11T12:21:33.478Z,12.90
2023-02-11T12:26:59.998Z,9.35
2023-02-11T12:32:14.238Z,14.63
2023-02-11T12:37:21.181Z,12.70
2023-02-11T12:42:50.663Z,13.23
2023-02-11T12:48:05.695Z,13.02
2023-02-11T12:53:22.940Z,15.70
2023-02-11T12:58:44.187Z,16.33
2023-02-11T13:04:00.298Z,14.70
2023-02-11T13:09:06.367Z,13.85
2023-02-11T13:14:38.001Z,14.38
2023-02-11T13:19:53.446Z,16.00
2023-02-11T13:25:07.496Z,16.42
2023-02-11T13:30:28.188Z,13.88
2023-02-11T13:35:37.816Z,14.32
2023-02-11T13:40:40.211Z,17.63
2023-02-11T13:45:45.211Z,17.33
2023-02-11T13:50:51.875Z,13.55
2023-02-11T13:56:07.955Z,17.25
2023-02-11T14:01:10.086Z,19.95
2023-02-11T14:06:32.441Z,17.85
2023-02-11T14:11:35.329Z,17.23
2023-02-11T14:17:02.713Z,16.00
2023-02-11T14:22:12.028Z,18.10
2023-02-11T14:27:24.048Z,17.58
2023-02-11T14:33:02.970Z,15.07
2023-02-11T14:38:31.885Z,15.00
2023-02-11T14:43:46.995Z,18.45
2023-02-11T14:48:52.404Z,20.13
2023-02-11T14:54:17.231Z,19.08
2023-02-11T14:59:21.707Z,18.15
2023-02-11T15:04:32.950Z,14.30
2023-02-11T15:09:43.153Z,25.20
2023-02-11T15:14:51.074Z,20.50
2023-02-11T15:19:56.980Z,18.80
2023-02-11T15:25:04.201Z,19.80
2023-02-11T15:30:23.830Z,25.90
2023-02-11T15:35:35.251Z,21.45
2023-02-11T15:40:37.831Z,19.63
2023-02-11T15:45:43.731Z,14.50
2023-02-11T15:50:56.049Z,17.67
2023-02-11T15:56:01.450Z,18.13
2023-02-11T16:01:03.880Z,14.15
2023-02-11T16:06:15.896Z,24.50
2023-02-11T16:11:36.270Z,19.52
2023-02-11T16:16:38.443Z,21.92
2023-02-11T16:21:45.434Z,21.73
2023-02-11T16:26:50.784Z,22.73
2023-02-11T16:31:55.168Z,21.60
2023-02-11T16:36:57.256Z,20.00
2023-02-11T16:41:59.811Z,29.13
2023-02-11T16:47:03.768Z,16.02
2023-02-11T16:52:08.566Z,21.83
2023-02-11T16:57:22.719Z,25.13
2023-02-11T17:02:31.327Z,23.73
2023-02-11T17:07:33.727Z,27.08
2023-02-11T17:12:35.712Z,17.45
2023-02-11T17:17:37.905Z,22.30
2023-02-11T17:22:40.267Z,17.15
2023-02-11T17:27:42.377Z,14.65
2023-02-11T17:32:44.549Z,17.02
2023-02-11T17:37:46.636Z,13.35
2023-02-11T17:42:48.714Z,17.60
2023-02-11T17:47:50.745Z,13.15
2023-02-11T17:52:52.818Z,13.32
2023-02-11T17:57:55.625Z,14.02
2023-02-11T18:03:06.419Z,15.40
2023-02-11T18:08:08.625Z,15.20
2023-02-11T18:13:10.657Z,11.55
2023-02-11T18:18:12.780Z,10.93
2023-02-11T18:23:14.841Z,12.63
2023-02-11T18:28:16.906Z,11.70
2023-02-11T18:33:18.910Z,15.27
2023-02-11T18:38:22.405Z,15.38
2023-02-11T18:43:24.748Z,8.88
2023-02-11T18:48:27.565Z,12.15
2023-02-11T18:53:29.618Z,10.07
2023-02-11T18:58:31.629Z,9.07
2023-02-11T19:03:33.665Z,9.77
2023-02-11T19:08:35.862Z,7.25
2023-02-11T19:13:38.237Z,12.35
2023-02-11T19:18:40.525Z,9.40
2023-02-11T19:23:42.568Z,10.05
2023-02-11T19:28:45.000Z,9.13
2023-02-11T19:33:47.381Z,11.05
2023-02-11T19:38:49.410Z,10.68
2023-02-11T19:43:53.087Z,8.18
2023-02-11T19:48:55.631Z,9.73
2023-02-11T19:53:58.837Z,9.27
2023-02-11T19:59:02.930Z,7.28
2023-02-11T20:04:05.831Z,6.60
2023-02-11T20:09:11.927Z,12.32
2023-02-11T20:14:15.404Z,7.22
2023-02-11T20:19:20.196Z,7.63
2023-02-11T20:24:23.413Z,7.82
2023-02-11T20:29:26.062Z,7.97
2023-02-11T20:34:28.175Z,6.95
2023-02-11T20:39:30.273Z,7.65
2023-02-11T20:44:32.320Z,8.75
2023-02-11T20:49:34.327Z,6.53
2023-02-11T20:54:36.323Z,8.10
2023-02-11T20:59:38.480Z,6.93
2023-02-11T21:04:40.646Z,6.80
2023-02-11T21:09:42.781Z,8.75
2023-02-11T21:14:44.817Z,8.48
2023-02-11T21:19:47.007Z,6.22
2023-02-11T21:24:49.204Z,8.15
2023-02-11T21:29:54.548Z,6.88
2023-02-11T21:34:56.963Z,9.30
2023-02-11T21:39:59.064Z,7.00
2023-02-11T21:45:01.140Z,8.77
2023-02-11T21:50:03.815Z,7.88
2023-02-11T21:55:06.697Z,5.97
2023-02-11T22:00:09.805Z,7.45
2023-02-11T22:05:11.871Z,8.65
2023-02-11T22:10:14.439Z,7.53
2023-02-11T22:15:16.720Z,7.25
2023-02-11T22:20:18.900Z,6.20
2023-02-11T22:25:21.001Z,6.93
2023-02-11T22:30:23.053Z,7.95
2023-02-11T22:35:25.143Z,7.72
2023-02-11T22:40:27.184Z,8.27
2023-02-11T22:45:29.306Z,5.50
2023-02-11T22:50:31.503Z,5.18
2023-02-11T22:55:38.182Z,6.38
2023-02-11T23:00:41.554Z,7.55
2023-02-11T23:05:43.674Z,7.22
2023-02-11T23:10:46.461Z,6.88
2023-02-11T23:15:48.514Z,12.73
2023-02-11T23:20:50.618Z,7.90
2023-02-11T23:25:52.898Z,7.78
2023-02-11T23:30:55.667Z,6.78
2023-02-11T23:35:57.717Z,5.85
2023-02-11T23:40:59.757Z,6.22
2023-02-11T23:46:01.909Z,6.22
2023-02-11T23:51:04.517Z,5.43
2023-02-11T23:56:13.530Z,3.80
